< < Back
Terminal Aerodrome Forecast


Current Version              Previous Versions:   1  2  3  4  5  6  7  8  9  

Terminal Aerodrome Forecast

046
FTUS42 KTAE 291120
TAFVLD
TAF
KVLD 291120Z 2912/3012 00000KT P6SM SCT080 BKN250
     FM291400 36005KT P6SM SCT060
     FM300100 00000KT P6SM SCT060 SCT100=



Latest METAR

141
SAUS70 KWBC 300600 RRJ
MTRVLD
METAR KVLD 300553Z AUTO 00000KT 10SM OVC070 22/19 A3001 RMK AO2 SLP167
60000 T02220194 10294 20206 56009


USA.gov is the U.S. government's official web portal to all federal, state and local government web resources and services.